Catlin, Illinois
Current Conditions -  °F | °C
As of 2:55 AM on Saturday 22 Nov 2014 (Local Time) from KDNV Reporting Station
Overcast Overcast  
Wind Chill: 25°   Ceiling: 1600
Heat Index: 35°   Visibility: 10mi
Dew Point: 30°   Wind: 15mph
Humidity: 83%   Direction: 190°S
Pressure: 30.15"   Gusts: NA
Location:  40.07°N, 87.7°W
Report Text: KDNV 220855Z AUTO 19013KT 10SM BKN016 OVC043 02/M01 A3015 RMK AO2 P0002 60008 T00161010
Loading
Personal Weather Stations






























Interactive Weather Map New forecast layout! Learn more

10-Day Weather Forecast

Advertisements
Track Severe Weather on mobile